NCAR-RAP Real-Time Weather Data

Output produced by METARs form (21 February 2017  05:51 UTC)
found at http://weather.rap.ucar.edu/surface/
 
KDCA 210452Z 00000KT 10SM SCT250 09/M02 A3032 RMK AO2 SLP266 T00941017 402000061
KDCA 210352Z 04007KT 10SM SCT250 10/M01 A3030 RMK AO2 SLP261 T01001011
KDCA 210252Z 03006KT 10SM SCT250 10/M01 A3029 RMK AO2 SLP257 T01001011 53014
KDCA 210152Z 00000KT 10SM SCT250 12/01 A3028 RMK AO2 SLP253 T01170006
KDCA 210052Z 10005KT 10SM CLR 13/02 A3025 RMK AO2 SLP244 T01280017
KDCA 202352Z 06006KT 10SM FEW250 14/01 A3025 RMK AO2 SLP243 T01390011 10200 20133 53021
KDCA 202252Z 05008KT 10SM BKN250 15/01 A3022 RMK AO2 SLP235 T01500011
KDCA 202152Z 35009KT 10SM SCT250 18/M01 A3021 RMK AO2 SLP229 T01831011
KDCA 202052Z 01008KT 10SM SCT250 20/M01 A3019 RMK AO2 SLP223 T02001011 56007
KDCA 201952Z 30004KT 10SM SCT250 19/01 A3019 RMK AO2 SLP223 T01940006
KDCA 201852Z 35009KT 10SM FEW170 SCT250 19/01 A3018 RMK AO2 SLP221 T01940011
KDCA 201752Z 34010KT 10SM SCT170 BKN250 18/02 A3021 RMK AO2 SLP229 T01830022 10189 20067 58013
KDCA 201652Z 33010G19KT 10SM SCT170 BKN250 18/03 A3024 RMK AO2 SLP240 T01780028
KDCA 201552Z 35015KT 10SM FEW120 SCT240 17/03 A3025 RMK AO2 SLP242 T01720033
KDCA 201452Z 35012G19KT 10SM FEW120 FEW230 16/05 A3025 RMK AO2 SLP241 T01560050 51021
KDCA 201352Z 33011KT 10SM FEW200 14/06 A3024 RMK AO2 SLP240 T01390061
KDCA 201252Z 34006KT 10SM FEW200 11/07 A3022 RMK AO2 SLP232 T01110067
KDCA 201152Z 18004KT 10SM FEW250 07/06 A3019 RMK AO2 SLP222 T00720056 10117 20061 53024
KDCA 201052Z 18003KT 10SM FEW250 07/05 A3015 RMK AO2 SLP210 T00670050
KDCA 200952Z 00000KT 10SM CLR 08/06 A3014 RMK AO2 SLP205 T00830056
KDCA 200852Z 36004KT 10SM FEW250 08/06 A3011 RMK AO2 SLP197 T00830056 53014
KDCA 200752Z 00000KT 10SM FEW250 10/06 A3010 RMK AO2 SLP191 T01000056
KDCA 200652Z 26005KT 10SM BKN250 09/06 A3008 RMK AO2 SLP186 T00940056
KDCA 200552Z 26004KT 10SM BKN250 11/06 A3007 RMK AO2 SLP182 T01110056 10183 20106 53011
KDCA 200452Z VRB03KT 10SM BKN250 13/06 A3006 RMK AO2 SLP177 T01280056 402170094
KDCA 200352Z 30007KT 10SM SCT250 14/06 A3005 RMK AO2 SLP175 T01440056
KDCA 200252Z 30010KT 10SM SCT250 15/06 A3004 RMK AO2 SLP171 T01500056 53021
KDCA 200152Z 31008KT 10SM SCT250 16/05 A3002 RMK AO2 SLP163 T01610050
KDCA 200052Z 29008KT 250V320 10SM CLR 17/04 A3000 RMK AO2 SLP157 T01720044
KDCA 192352Z 30007KT 10SM CLR 18/04 A2998 RMK AO2 SLP150 T01780044 10217 20178 53016
KDCA 192252Z 32014KT 10SM FEW250 19/03 A2995 RMK AO2 SLP142 T01940033
KDCA 192152Z 27015G19KT 10SM FEW120 21/04 A2994 RMK AO2 SLP137 T02110039
KDCA 192052Z 31013G17KT 10SM FEW050 FEW120 22/06 A2993 RMK AO2 SLP134 T02170056 53007
KDCA 191952Z 30012G16KT 10SM FEW110 22/06 A2991 RMK AO2 WSHFT 1846 SLP129 T02170061
KDCA 191906Z 29009KT 10SM FEW110 21/06 A2991 RMK AO2 WSHFT 1846 T02110061
KDCA 191852Z 25013G17KT 10SM FEW110 21/07 A2991 RMK AO2 SLP126 T02110067
KDCA 191752Z 35006KT 10SM FEW110 20/07 A2991 RMK AO2 SLP127 T02000067 10206 20128 58003
KDCA 191652Z 33012G15KT 10SM FEW110 SCT250 20/07 A2993 RMK AO2 SLP133 T02000072
KDCA 191552Z 31009KT 10SM SCT110 BKN250 18/07 A2993 RMK AO2 SLP134 T01830072
KDCA 191452Z 33010KT 10SM BKN095 OVC250 16/07 A2992 RMK AO2 SLP131 T01610072 51021
KDCA 191352Z 33011G16KT 10SM BKN070 BKN250 16/07 A2990 RMK AO2 SLP126 T01610072
KDCA 191252Z 32009KT 10SM BKN070 OVC250 16/08 A2988 RMK AO2 SLP119 T01560078
KDCA 191152Z 35004KT 10SM OVC060 13/07 A2986 RMK AO2 SLP111 BINOVC SE-SW 60001 70001 T01330072 10150 20094 51018
KDCA 191052Z 32006KT 10SM OVC070 15/08 A2985 RMK AO2 SLP106 T01500083
KDCA 190952Z 00000KT 10SM OVC070 12/07 A2983 RMK AO2 RAE01 SLP103 P0000 T01170072
KDCA 190852Z 24005KT 10SM -RA BKN065 OVC090 10/08 A2981 RMK AO2 SLP093 P0001 60001 T01000078 52005
KDCA 190752Z 00000KT 10SM -RA OVC075 13/06 A2980 RMK AO2 RAB00 SLP089 P0000 T01330056
KDCA 190652Z 17005KT 10SM OVC090 13/03 A2980 RMK AO2 RAB00E20 SLP091 P0000 T01330033
KDCA 190552Z 18004KT 10SM BKN100 OVC120 13/03 A2979 RMK AO2 SLP088 T01280028 10156 20117 52004
KDCA 190452Z 19008KT 10SM OVC150 13/03 A2980 RMK AO2 SLP089 T01280028 402000006
KDCA 190352Z 00000KT 10SM FEW120 OVC140 15/02 A2978 RMK AO2 SLP084 T01500017
KDCA 190252Z 22003KT 10SM BKN150 14/02 A2978 RMK AO2 SLP085 T01440017 53003
KDCA 190152Z COR 21005KT 10SM BKN140 BKN160 14/03 A2977 RMK AO2 SLP081 T01390033
KDCA 190052Z 17006KT 10SM OVC180 14/01 A2977 RMK AO2 SLP082 T01440006
KDCA 182352Z 18007KT 10SM OVC160 14/02 A2977 RMK AO2 SLP082 T01390017 10200 20139 53007
KDCA 182252Z 19009KT 10SM FEW160 OVC250 14/02 A2976 RMK AO2 SLP077 T01390017
KDCA 182152Z 18008KT 10SM FEW160 OVC250 17/02 A2975 RMK AO2 SLP073 T01670022
KDCA 182052Z 19010KT 10SM FEW160 BKN230 OVC250 17/02 A2975 RMK AO2 SLP075 T01720017 55019
KDCA 181952Z 17010KT 10SM BKN240 17/01 A2975 RMK AO2 SLP073 T01720006
KDCA 181852Z 17007KT 10SM BKN230 18/01 A2977 RMK AO2 SLP083 T01830011
KDCA 181752Z 18009KT 10SM BKN250 14/01 A2981 RMK AO2 SLP093 T01390006 10139 20011 58029